Ayrshire, Indiana
Current Conditions -  °F | °C
As of 5:55 AM on Friday 28 Nov 2014 (Local Time) from KHNB Reporting Station
Scattered Clouds Scattered Clouds  
Wind Chill: 25°   Ceiling: Unl
Heat Index: 25°   Visibility: 10mi
Dew Point: 19°   Wind: 3mph
Humidity: 80%   Direction: 150°SSE
Pressure: 30.42"   Gusts: NA
Location:  38.3488°N, 87.2217°W
Report Text: KHNB 281155Z AUTO 15003KT 10SM SCT120 M04/M07 A3042 RMK AO1 11040 21060 57007
Loading
Personal Weather Stations






























Interactive Weather Map New forecast layout! Learn more

10-Day Weather Forecast

Advertisements
Track Severe Weather on mobile